Time;durP1;ratioP1;P1;durP2;ratioP2;P2;SDS_P1;SDS_P2;PMS_P1;PMS_P2;Temp;Humidity;BMP_temperature;BMP_pressure;BME280_temperature;BME280_humidity;BME280_pressure;Samples;Min_cycle;Max_cycle;Signal;HPM_P1;HPM_P2
2021/12/25 00:01:21;;;;;;;19.88;6.25;;;;;;;;;;5033984;28;20079;-60
2021/12/25 00:03:49;;;;;;;12.57;6.90;;;;;;;;;;5026776;28;20033;-64
2021/12/25 00:06:14;;;;;;;17.63;5.53;;;;;;;;;;5032135;28;20037;-59
2021/12/25 00:08:40;;;;;;;11.98;3.50;;;;;;;;;;5026109;28;20018;-59
2021/12/25 00:11:08;;;;;;;6.65;2.20;;;;;;;;;;5030031;28;20040;-59
2021/12/25 00:13:34;;;;;;;15.85;5.80;;;;;;;;;;5029655;28;20029;-60
2021/12/25 00:16:00;;;;;;;10.13;4.38;;;;;;;;;;5028331;28;20056;-62
2021/12/25 00:18:26;;;;;;;12.90;3.67;;;;;;;;;;5028256;28;20034;-61
2021/12/25 00:20:51;;;;;;;10.15;3.35;;;;;;;;;;5028165;28;20030;-61
2021/12/25 00:23:17;;;;;;;6.10;2.28;;;;;;;;;;5030568;28;20029;-62
2021/12/25 00:25:47;;;;;;;5.68;1.83;;;;;;;;;;5030575;28;20036;-59
2021/12/25 00:31:07;;;;;;;6.30;3.03;;;;;;;;;;5025988;28;20034;-62
2021/12/25 00:36:19;;;;;;;5.25;2.85;;;;;;;;;;5031432;28;20030;-61
2021/12/25 00:38:47;;;;;;;6.07;2.55;;;;;;;;;;5028892;28;20052;-59
2021/12/25 00:41:15;;;;;;;6.28;2.83;;;;;;;;;;5031323;28;20030;-61
2021/12/25 00:43:41;;;;;;;5.90;3.33;;;;;;;;;;5029513;28;20477;-62
2021/12/25 00:46:06;;;;;;;9.68;2.92;;;;;;;;;;5031116;28;20041;-61
2021/12/25 00:48:32;;;;;;;6.65;2.58;;;;;;;;;;5027583;28;20025;-61
2021/12/25 00:50:59;;;;;;;6.20;2.08;;;;;;;;;;5026400;28;20038;-59
2021/12/25 00:53:24;;;;;;;7.32;3.47;;;;;;;;;;5031360;28;20048;-60
2021/12/25 00:55:50;;;;;;;8.30;2.55;;;;;;;;;;5016035;28;20034;-61
2021/12/25 00:58:16;;;;;;;1.45;1.10;;;;;;;;;;5017869;28;20083;-59
2021/12/25 01:00:43;;;;;;;4.80;1.60;;;;;;;;;;5019623;28;20029;-60
2021/12/25 01:03:08;;;;;;;2.28;1.52;;;;;;;;;;5012830;28;20113;-59
2021/12/25 01:05:34;;;;;;;6.82;1.42;;;;;;;;;;5012100;28;20096;-60
2021/12/25 01:08:00;;;;;;;6.88;1.83;;;;;;;;;;5030852;28;20025;-60
2021/12/25 01:10:25;;;;;;;5.75;1.92;;;;;;;;;;5033250;28;20117;-59
2021/12/25 01:13:13;;;;;;;4.43;1.73;;;;;;;;;;5030553;28;20021;-60
2021/12/25 01:24:15;;;;;;;5.45;2.20;;;;;;;;;;4906774;29;20180;-59
2021/12/25 01:35:04;;;;;;;2.85;1.60;;;;;;;;;;4916592;29;20044;-63
2021/12/25 01:37:43;;;;;;;3.83;1.73;;;;;;;;;;4904022;29;20047;-64
2021/12/25 01:48:18;;;;;;;2.45;1.25;;;;;;;;;;4915279;29;20047;-61
2021/12/25 01:50:44;;;;;;;3.38;1.45;;;;;;;;;;4904431;29;20028;-65
2021/12/25 01:53:10;;;;;;;3.63;1.63;;;;;;;;;;4916351;29;20040;-62
2021/12/25 01:55:35;;;;;;;4.65;1.42;;;;;;;;;;4916095;29;20119;-60
2021/12/25 01:58:06;;;;;;;2.70;1.30;;;;;;;;;;4916214;29;20119;-60
2021/12/25 02:00:39;;;;;;;3.42;1.33;;;;;;;;;;5030670;28;20033;-59
2021/12/25 02:03:08;;;;;;;2.05;1.35;;;;;;;;;;5034773;28;20029;-61
2021/12/25 02:05:34;;;;;;;1.73;1.20;;;;;;;;;;5030300;28;20048;-59
2021/12/25 02:08:00;;;;;;;5.32;1.40;;;;;;;;;;5031974;28;20026;-61
2021/12/25 02:10:25;;;;;;;2.88;1.50;;;;;;;;;;5049574;28;20091;-62
2021/12/25 02:12:51;;;;;;;3.47;1.30;;;;;;;;;;5032542;28;20017;-60
2021/12/25 02:15:20;;;;;;;2.90;1.30;;;;;;;;;;5026006;28;20064;-60
2021/12/25 02:20:40;;;;;;;2.53;1.60;;;;;;;;;;5015540;28;20044;-61
2021/12/25 02:23:24;;;;;;;5.68;1.33;;;;;;;;;;5023659;28;20037;-61
2021/12/25 02:25:54;;;;;;;4.55;1.33;;;;;;;;;;5034425;28;20029;-60
2021/12/25 02:28:20;;;;;;;2.57;1.40;;;;;;;;;;5034627;28;20057;-61
2021/12/25 02:30:47;;;;;;;4.07;1.58;;;;;;;;;;5030209;28;20461;-61
2021/12/25 02:33:13;;;;;;;3.92;1.65;;;;;;;;;;5013115;28;20376;-61
2021/12/25 02:35:39;;;;;;;3.20;1.92;;;;;;;;;;5027146;28;20112;-59
2021/12/25 02:38:05;;;;;;;5.85;1.60;;;;;;;;;;5034053;28;20052;-59
2021/12/25 02:40:32;;;;;;;3.55;1.50;;;;;;;;;;5033900;28;20163;-60
2021/12/25 02:42:58;;;;;;;2.92;1.52;;;;;;;;;;5034160;28;20050;-60
2021/12/25 02:45:23;;;;;;;3.88;1.35;;;;;;;;;;5026554;28;20400;-59
2021/12/25 02:47:52;;;;;;;3.17;1.63;;;;;;;;;;5033513;28;20037;-61
2021/12/25 02:50:26;;;;;;;3.00;1.42;;;;;;;;;;5033928;28;20040;-59
2021/12/25 02:52:52;;;;;;;3.90;1.45;;;;;;;;;;5033801;28;20036;-65
2021/12/25 02:55:18;;;;;;;2.75;1.40;;;;;;;;;;5033777;28;20029;-60
2021/12/25 02:57:49;;;;;;;2.22;1.30;;;;;;;;;;5026248;28;20037;-59
2021/12/25 03:00:23;;;;;;;3.28;1.75;;;;;;;;;;5021151;28;20029;-59
2021/12/25 03:02:49;;;;;;;5.72;1.40;;;;;;;;;;5033321;28;20040;-59
2021/12/25 03:05:15;;;;;;;3.83;2.08;;;;;;;;;;5033338;28;20544;-60
2021/12/25 03:07:41;;;;;;;3.20;1.50;;;;;;;;;;5033435;28;20385;-59
2021/12/25 03:10:08;;;;;;;5.22;1.60;;;;;;;;;;5033140;28;20036;-61
2021/12/25 03:12:47;;;;;;;4.10;2.00;;;;;;;;;;5033443;28;20378;-60
2021/12/25 03:15:17;;;;;;;1.92;1.33;;;;;;;;;;5014731;28;20120;-59
2021/12/25 03:17:43;;;;;;;5.97;1.25;;;;;;;;;;5031622;28;20527;-59
2021/12/25 03:20:11;;;;;;;3.50;1.60;;;;;;;;;;5027491;28;20065;-59
2021/12/25 03:22:38;;;;;;;1.40;1.08;;;;;;;;;;5030957;28;20080;-60
2021/12/25 03:25:09;;;;;;;2.35;1.17;;;;;;;;;;5033071;28;20476;-59
2021/12/25 03:27:38;;;;;;;2.72;1.17;;;;;;;;;;5033115;28;20037;-62
2021/12/25 03:30:05;;;;;;;5.57;1.90;;;;;;;;;;5032817;28;20090;-59
2021/12/25 03:32:30;;;;;;;6.45;2.15;;;;;;;;;;5032556;28;20092;-61
2021/12/25 03:34:56;;;;;;;9.85;2.13;;;;;;;;;;5032719;28;20030;-59
2021/12/25 03:37:21;;;;;;;2.15;1.35;;;;;;;;;;5032696;28;20032;-61
2021/12/25 03:39:47;;;;;;;2.92;1.40;;;;;;;;;;5030923;28;20077;-61
2021/12/25 03:42:12;;;;;;;2.60;1.50;;;;;;;;;;5025881;28;20057;-63
2021/12/25 03:44:38;;;;;;;2.35;1.30;;;;;;;;;;5032612;28;20121;-60
2021/12/25 03:47:13;;;;;;;4.28;1.50;;;;;;;;;;5032468;28;20159;-61
2021/12/25 03:53:09;;;;;;;25.30;10.88;;;;;;;;;;5014495;28;20099;-60
2021/12/25 03:58:02;;;;;;;3.90;1.60;;;;;;;;;;5023409;28;20045;-59
2021/12/25 04:00:30;;;;;;;3.00;1.35;;;;;;;;;;5022232;28;20554;-61
2021/12/25 04:03:01;;;;;;;4.15;1.60;;;;;;;;;;5026794;28;20053;-63
2021/12/25 04:05:28;;;;;;;1.38;1.00;;;;;;;;;;5032243;28;20174;-66
2021/12/25 04:10:19;;;;;;;3.47;1.70;;;;;;;;;;5032204;28;20044;-65
2021/12/25 04:12:44;;;;;;;1.60;1.20;;;;;;;;;;5032107;28;20040;-66
2021/12/25 04:15:10;;;;;;;1.60;1.10;;;;;;;;;;5026458;28;20132;-66
2021/12/25 04:17:35;;;;;;;3.90;1.20;;;;;;;;;;5019793;28;20028;-65
2021/12/25 04:20:03;;;;;;;2.60;1.30;;;;;;;;;;5031944;28;20511;-65
2021/12/25 04:22:36;;;;;;;2.70;1.52;;;;;;;;;;5009198;28;20042;-66
2021/12/25 04:25:02;;;;;;;5.05;1.40;;;;;;;;;;5022204;28;20037;-65
2021/12/25 04:27:28;;;;;;;3.47;1.88;;;;;;;;;;5032566;28;20460;-66
2021/12/25 04:30:01;;;;;;;1.52;1.30;;;;;;;;;;5031733;28;20044;-66
2021/12/25 04:32:54;;;;;;;3.90;1.55;;;;;;;;;;5032133;28;20439;-66
2021/12/25 05:05:10;;;;;;;2.03;1.20;;;;;;;;;;5014987;28;20060;-64
2021/12/25 05:07:35;;;;;;;1.27;1.00;;;;;;;;;;5035292;28;20065;-67
2021/12/25 05:10:01;;;;;;;2.60;1.30;;;;;;;;;;5035654;28;20527;-66
2021/12/25 05:12:26;;;;;;;4.05;1.15;;;;;;;;;;5024551;28;20092;-66
2021/12/25 05:14:52;;;;;;;1.58;1.10;;;;;;;;;;5029894;28;20112;-64
2021/12/25 05:17:17;;;;;;;3.17;1.20;;;;;;;;;;5035341;28;20041;-65
2021/12/25 05:19:43;;;;;;;2.05;1.10;;;;;;;;;;5031231;28;20369;-62
2021/12/25 05:22:09;;;;;;;2.03;1.33;;;;;;;;;;5035015;28;20030;-62
2021/12/25 05:24:35;;;;;;;2.83;1.70;;;;;;;;;;5035478;28;20032;-64
2021/12/25 05:27:00;;;;;;;1.95;1.25;;;;;;;;;;5028674;28;20382;-65
2021/12/25 05:29:26;;;;;;;8.32;3.42;;;;;;;;;;5030232;28;20056;-65
2021/12/25 05:31:53;;;;;;;4.30;1.90;;;;;;;;;;5034687;28;20033;-64
2021/12/25 05:34:18;;;;;;;3.35;1.42;;;;;;;;;;5034917;28;20045;-65
2021/12/25 05:36:44;;;;;;;6.55;2.13;;;;;;;;;;5034870;28;20044;-65
2021/12/25 05:39:12;;;;;;;3.90;2.22;;;;;;;;;;5027637;28;20060;-65
2021/12/25 05:41:38;;;;;;;5.32;1.73;;;;;;;;;;5021900;28;20041;-66
2021/12/25 05:44:04;;;;;;;3.20;1.40;;;;;;;;;;5035151;28;20080;-65
2021/12/25 05:46:30;;;;;;;3.22;1.50;;;;;;;;;;5029341;28;20477;-64
2021/12/25 05:48:55;;;;;;;1.67;1.20;;;;;;;;;;5014987;28;20552;-66
2021/12/25 05:51:21;;;;;;;2.80;1.30;;;;;;;;;;5014971;28;20034;-62
2021/12/25 05:53:47;;;;;;;1.90;1.20;;;;;;;;;;5022605;28;20033;-65
2021/12/25 05:56:13;;;;;;;1.33;1.13;;;;;;;;;;5033931;28;20037;-64
2021/12/25 05:58:39;;;;;;;7.25;1.88;;;;;;;;;;5024382;28;20030;-65
2021/12/25 06:01:05;;;;;;;2.20;1.30;;;;;;;;;;5024509;28;20083;-64
2021/12/25 06:03:31;;;;;;;1.77;1.15;;;;;;;;;;5034275;28;20029;-66
2021/12/25 06:05:57;;;;;;;3.40;1.73;;;;;;;;;;5018021;28;20126;-66
2021/12/25 06:08:24;;;;;;;1.55;1.20;;;;;;;;;;5031005;28;20080;-66
2021/12/25 06:10:49;;;;;;;1.77;1.10;;;;;;;;;;5034188;28;20476;-66
2021/12/25 06:13:19;;;;;;;5.82;1.42;;;;;;;;;;5017998;28;20041;-65
2021/12/25 06:15:44;;;;;;;5.53;1.27;;;;;;;;;;5024183;28;20040;-66
2021/12/25 06:18:10;;;;;;;2.85;1.23;;;;;;;;;;5021015;28;20034;-66
2021/12/25 06:20:37;;;;;;;8.32;2.13;;;;;;;;;;5034149;28;20461;-66
2021/12/25 06:23:02;;;;;;;5.22;1.58;;;;;;;;;;5031070;28;20034;-66
2021/12/25 06:25:28;;;;;;;1.70;1.30;;;;;;;;;;5020715;28;20393;-66
2021/12/25 06:27:54;;;;;;;4.78;1.90;;;;;;;;;;5025647;28;20477;-65
2021/12/25 06:30:19;;;;;;;4.47;1.80;;;;;;;;;;5024955;28;20113;-67
2021/12/25 06:32:46;;;;;;;4.90;2.33;;;;;;;;;;5015473;28;20072;-65
2021/12/25 06:35:12;;;;;;;5.88;2.60;;;;;;;;;;5030774;28;20044;-67
2021/12/25 06:37:40;;;;;;;4.70;1.67;;;;;;;;;;5033803;28;20034;-66
2021/12/25 06:40:07;;;;;;;5.50;2.22;;;;;;;;;;5033725;28;20447;-66
2021/12/25 06:42:33;;;;;;;9.95;2.13;;;;;;;;;;5024169;28;20067;-67
2021/12/25 06:44:59;;;;;;;3.15;1.80;;;;;;;;;;5030782;28;20365;-63
2021/12/25 06:47:24;;;;;;;4.53;1.90;;;;;;;;;;5034053;28;20024;-65
2021/12/25 06:49:50;;;;;;;6.28;2.35;;;;;;;;;;5029458;28;20105;-65
2021/12/25 06:52:15;;;;;;;4.15;1.85;;;;;;;;;;5017227;28;20033;-67
2021/12/25 06:54:40;;;;;;;6.57;2.42;;;;;;;;;;5013765;28;20022;-67
2021/12/25 06:57:06;;;;;;;3.78;2.08;;;;;;;;;;5017525;28;20457;-67
2021/12/25 06:59:32;;;;;;;9.00;2.72;;;;;;;;;;5033780;28;20053;-66
2021/12/25 07:01:57;;;;;;;3.60;1.80;;;;;;;;;;5027399;28;20107;-66
2021/12/25 07:04:23;;;;;;;8.82;3.00;;;;;;;;;;5025988;28;20033;-65
2021/12/25 07:06:48;;;;;;;5.55;2.00;;;;;;;;;;5033199;28;20502;-65
2021/12/25 07:09:14;;;;;;;3.53;1.80;;;;;;;;;;5017944;28;20511;-61
2021/12/25 07:11:40;;;;;;;4.60;2.20;;;;;;;;;;5013580;28;20029;-60
2021/12/25 07:14:08;;;;;;;4.65;2.00;;;;;;;;;;5026301;28;20122;-66
2021/12/25 07:16:33;;;;;;;4.22;2.15;;;;;;;;;;5033004;28;20396;-67
2021/12/25 07:18:59;;;;;;;3.97;1.50;;;;;;;;;;5032997;28;20030;-66
2021/12/25 07:21:24;;;;;;;4.20;1.63;;;;;;;;;;5021668;28;20030;-64
2021/12/25 07:23:50;;;;;;;4.50;1.45;;;;;;;;;;5026686;28;20496;-67
2021/12/25 07:26:19;;;;;;;3.63;1.58;;;;;;;;;;5032764;28;20375;-65
2021/12/25 07:28:46;;;;;;;3.28;1.27;;;;;;;;;;5019585;28;20030;-67
2021/12/25 07:31:11;;;;;;;2.72;1.50;;;;;;;;;;5030134;28;20116;-66
2021/12/25 07:33:37;;;;;;;6.43;2.17;;;;;;;;;;5017065;28;20132;-61
2021/12/25 07:36:03;;;;;;;2.13;1.35;;;;;;;;;;5021766;28;20444;-66
2021/12/25 07:38:28;;;;;;;2.67;1.88;;;;;;;;;;5027076;28;20492;-61
2021/12/25 07:40:54;;;;;;;3.08;1.20;;;;;;;;;;5032520;28;20086;-65
2021/12/25 07:43:19;;;;;;;3.25;1.40;;;;;;;;;;5032787;28;20488;-66
2021/12/25 07:45:51;;;;;;;1.50;1.10;;;;;;;;;;5032501;28;20404;-63
2021/12/25 07:48:19;;;;;;;2.38;1.20;;;;;;;;;;5032411;28;20076;-64
2021/12/25 07:50:44;;;;;;;2.30;1.42;;;;;;;;;;5032122;28;20119;-63
2021/12/25 07:53:10;;;;;;;2.80;1.30;;;;;;;;;;5032225;28;20112;-62
2021/12/25 07:55:36;;;;;;;3.65;1.73;;;;;;;;;;5029003;28;20026;-66
2021/12/25 07:58:02;;;;;;;2.75;1.77;;;;;;;;;;5021215;28;20037;-64
2021/12/25 08:00:28;;;;;;;4.65;1.60;;;;;;;;;;5031993;28;20488;-63
2021/12/25 08:02:53;;;;;;;3.03;1.80;;;;;;;;;;5032592;28;20024;-62
2021/12/25 08:05:20;;;;;;;5.07;2.08;;;;;;;;;;5018571;28;20484;-65
2021/12/25 08:07:45;;;;;;;3.47;2.00;;;;;;;;;;5029062;28;20041;-65
2021/12/25 08:10:16;;;;;;;2.90;1.67;;;;;;;;;;5024580;28;20026;-62
2021/12/25 08:12:53;;;;;;;11.40;5.57;;;;;;;;;;5028032;28;20176;-62
2021/12/25 08:15:25;;;;;;;7.82;2.17;;;;;;;;;;5022403;28;20052;-66
2021/12/25 08:17:52;;;;;;;4.30;1.95;;;;;;;;;;5031965;28;20045;-61
2021/12/25 08:20:18;;;;;;;4.40;2.00;;;;;;;;;;5031435;28;20046;-64
2021/12/25 08:22:44;;;;;;;9.10;4.32;;;;;;;;;;5032218;28;20481;-61
2021/12/25 08:25:10;;;;;;;15.02;7.03;;;;;;;;;;5032232;28;20049;-61
2021/12/25 08:27:37;;;;;;;8.25;4.35;;;;;;;;;;5029483;28;20108;-61
2021/12/25 08:30:07;;;;;;;5.85;3.53;;;;;;;;;;5032047;28;20071;-61
2021/12/25 08:32:33;;;;;;;8.25;4.85;;;;;;;;;;5031989;28;20032;-63
2021/12/25 08:34:59;;;;;;;5.53;2.85;;;;;;;;;;5022319;28;20084;-62
2021/12/25 08:37:26;;;;;;;4.47;2.78;;;;;;;;;;5023111;28;20026;-65
2021/12/25 08:39:52;;;;;;;5.07;2.10;;;;;;;;;;5024630;28;20050;-61
2021/12/25 08:42:18;;;;;;;9.32;3.90;;;;;;;;;;5030211;28;20030;-60
2021/12/25 08:47:29;;;;;;;4.40;2.50;;;;;;;;;;5027102;28;20107;-60
2021/12/25 08:49:55;;;;;;;4.82;2.33;;;;;;;;;;5031107;28;20079;-64
2021/12/25 08:52:22;;;;;;;5.43;2.22;;;;;;;;;;5031262;28;20037;-62
2021/12/25 08:54:49;;;;;;;3.60;1.95;;;;;;;;;;5029186;28;20025;-60
2021/12/25 08:57:16;;;;;;;6.80;2.03;;;;;;;;;;5030369;28;20030;-60
2021/12/25 08:59:42;;;;;;;8.52;1.73;;;;;;;;;;5031179;28;20022;-63
2021/12/25 09:02:12;;;;;;;4.93;1.98;;;;;;;;;;5029620;28;20366;-62
2021/12/25 09:04:39;;;;;;;10.70;4.57;;;;;;;;;;5028794;28;20100;-64
2021/12/25 09:07:05;;;;;;;16.30;5.57;;;;;;;;;;5031010;28;20087;-65
2021/12/25 09:09:31;;;;;;;13.20;4.95;;;;;;;;;;5030992;28;20045;-63
2021/12/25 09:11:56;;;;;;;9.07;4.55;;;;;;;;;;5027896;28;20040;-64
2021/12/25 09:14:22;;;;;;;19.58;5.80;;;;;;;;;;5028396;28;20029;-66
2021/12/25 09:16:48;;;;;;;17.00;5.47;;;;;;;;;;5028111;28;20454;-66
2021/12/25 09:19:14;;;;;;;12.07;4.05;;;;;;;;;;5041747;28;20029;-66
2021/12/25 09:21:39;;;;;;;14.48;4.90;;;;;;;;;;5029121;28;20430;-63
2021/12/25 09:24:05;;;;;;;10.98;4.38;;;;;;;;;;5031103;28;20037;-66
2021/12/25 09:26:31;;;;;;;8.32;3.83;;;;;;;;;;5027040;28;20128;-64
2021/12/25 09:28:56;;;;;;;11.00;3.53;;;;;;;;;;5031138;28;20037;-63
2021/12/25 09:31:22;;;;;;;12.27;4.53;;;;;;;;;;5031944;28;20028;-63
2021/12/25 09:33:47;;;;;;;11.25;4.50;;;;;;;;;;5032702;28;20029;-63
2021/12/25 09:36:13;;;;;;;11.52;3.83;;;;;;;;;;5034204;28;20083;-61
2021/12/25 09:38:39;;;;;;;8.82;4.18;;;;;;;;;;5034106;28;20041;-61
2021/12/25 09:41:06;;;;;;;15.77;4.28;;;;;;;;;;5032584;28;20026;-61
2021/12/25 09:43:33;;;;;;;11.32;4.30;;;;;;;;;;5034069;28;20442;-61
2021/12/25 09:45:59;;;;;;;11.05;4.32;;;;;;;;;;5034480;28;20128;-63
2021/12/25 09:48:25;;;;;;;12.52;5.53;;;;;;;;;;5033845;28;20484;-60
2021/12/25 09:50:51;;;;;;;15.90;6.65;;;;;;;;;;5034390;28;20022;-63
2021/12/25 09:53:19;;;;;;;11.65;5.57;;;;;;;;;;5014204;28;20025;-65
2021/12/25 09:55:45;;;;;;;11.68;5.75;;;;;;;;;;5032048;28;20025;-66
2021/12/25 09:58:11;;;;;;;10.25;4.57;;;;;;;;;;5031790;28;20112;-66
2021/12/25 10:00:41;;;;;;;5.60;3.10;;;;;;;;;;5029679;28;20389;-67
2021/12/25 10:03:07;;;;;;;6.57;3.40;;;;;;;;;;5033879;28;20037;-67
2021/12/25 10:05:41;;;;;;;5.40;2.63;;;;;;;;;;5033829;28;20033;-66
2021/12/25 10:08:26;;;;;;;4.03;2.10;;;;;;;;;;5033921;28;20033;-66
2021/12/25 10:11:02;;;;;;;6.03;1.83;;;;;;;;;;5048622;28;20017;-66
2021/12/25 10:13:32;;;;;;;37.80;19.77;;;;;;;;;;5033723;28;20040;-67
2021/12/25 10:16:18;;;;;;;10.30;4.80;;;;;;;;;;5031221;28;20021;-64
2021/12/25 10:18:44;;;;;;;9.18;3.20;;;;;;;;;;5029358;28;20090;-64
2021/12/25 10:21:19;;;;;;;9.43;2.70;;;;;;;;;;5033766;28;20350;-62
2021/12/25 10:23:44;;;;;;;5.85;2.33;;;;;;;;;;5031822;28;20091;-63
2021/12/25 10:26:10;;;;;;;6.47;2.60;;;;;;;;;;5030973;28;20025;-63
2021/12/25 10:28:40;;;;;;;4.57;1.98;;;;;;;;;;5031842;28;20469;-66
2021/12/25 10:31:13;;;;;;;4.55;1.85;;;;;;;;;;5029682;28;20108;-65
2021/12/25 10:33:51;;;;;;;2.53;1.42;;;;;;;;;;5031755;28;20392;-64
2021/12/25 10:36:34;;;;;;;5.38;1.73;;;;;;;;;;5033230;28;20094;-64
2021/12/25 10:39:11;;;;;;;8.77;2.60;;;;;;;;;;5030768;28;20103;-63
2021/12/25 10:41:49;;;;;;;6.95;1.83;;;;;;;;;;5032288;28;20510;-63
2021/12/25 10:44:22;;;;;;;3.45;1.20;;;;;;;;;;5033288;28;20396;-61
2021/12/25 10:47:01;;;;;;;5.25;1.90;;;;;;;;;;5032881;28;20509;-67
2021/12/25 10:49:33;;;;;;;4.97;1.52;;;;;;;;;;5014999;28;20384;-65
2021/12/25 10:52:29;;;;;;;2.78;1.90;;;;;;;;;;5030470;28;20026;-65
2021/12/25 10:54:58;;;;;;;6.43;1.70;;;;;;;;;;5025674;28;20037;-66
2021/12/25 10:57:38;;;;;;;3.65;1.95;;;;;;;;;;5030502;28;20033;-66
2021/12/25 11:00:21;;;;;;;2.70;1.77;;;;;;;;;;5029192;28;20036;-64
2021/12/25 11:02:57;;;;;;;4.20;2.40;;;;;;;;;;5029242;28;20064;-66
2021/12/25 11:05:34;;;;;;;2.85;1.70;;;;;;;;;;5012764;28;20029;-65
2021/12/25 11:08:08;;;;;;;1.88;1.38;;;;;;;;;;5032969;28;20057;-63
2021/12/25 11:11:14;;;;;;;2.92;1.40;;;;;;;;;;5032746;28;20021;-65
2021/12/25 11:13:48;;;;;;;5.10;1.95;;;;;;;;;;5030670;28;20431;-64
2021/12/25 11:16:27;;;;;;;5.03;2.60;;;;;;;;;;5032710;28;20022;-66
2021/12/25 11:19:08;;;;;;;6.53;1.95;;;;;;;;;;5032480;28;20040;-63
2021/12/25 11:21:46;;;;;;;3.88;2.08;;;;;;;;;;5032560;28;20503;-61
2021/12/25 11:24:19;;;;;;;3.75;2.25;;;;;;;;;;5032600;28;20045;-63
2021/12/25 11:26:53;;;;;;;4.93;2.38;;;;;;;;;;5026637;28;20026;-60
2021/12/25 11:29:22;;;;;;;3.47;1.90;;;;;;;;;;5029549;28;20033;-60
2021/12/25 11:31:49;;;;;;;6.47;2.55;;;;;;;;;;5030218;28;20064;-61
2021/12/25 11:34:16;;;;;;;5.82;2.58;;;;;;;;;;5031548;28;20392;-62
2021/12/25 11:36:47;;;;;;;11.93;4.18;;;;;;;;;;5030071;28;20025;-61
2021/12/25 11:39:16;;;;;;;16.80;6.18;;;;;;;;;;5022134;28;20077;-61
2021/12/25 11:41:43;;;;;;;15.85;6.65;;;;;;;;;;5023069;28;20112;-61
2021/12/25 11:44:28;;;;;;;13.00;4.75;;;;;;;;;;5026556;28;20045;-63
2021/12/25 11:46:53;;;;;;;10.70;4.25;;;;;;;;;;5026435;28;20029;-64
2021/12/25 11:49:19;;;;;;;15.52;5.20;;;;;;;;;;5025402;28;20031;-60
2021/12/25 11:51:46;;;;;;;12.88;5.38;;;;;;;;;;5014458;28;20449;-62
2021/12/25 11:59:49;;;;;;;83.25;22.92;;;;;;;;;;5012507;28;20116;-61
2021/12/25 12:02:38;;;;;;;9.38;3.83;;;;;;;;;;5018503;28;20025;-60
2021/12/25 12:05:24;;;;;;;13.93;4.63;;;;;;;;;;5020310;28;20535;-61
2021/12/25 12:08:11;;;;;;;22.70;7.28;;;;;;;;;;5024026;28;20033;-61
2021/12/25 12:10:45;;;;;;;3.10;1.50;;;;;;;;;;5021096;28;20057;-60
2021/12/25 12:13:16;;;;;;;3.85;1.48;;;;;;;;;;5014074;28;20026;-63
2021/12/25 12:15:47;;;;;;;2.80;1.40;;;;;;;;;;5022137;28;20028;-63
2021/12/25 12:18:25;;;;;;;5.63;1.38;;;;;;;;;;5019880;28;20031;-66
2021/12/25 12:20:56;;;;;;;2.67;1.60;;;;;;;;;;5017852;28;20060;-65
2021/12/25 12:26:47;;;;;;;3.15;1.50;;;;;;;;;;5030631;28;20365;-66
2021/12/25 12:29:13;;;;;;;4.35;1.60;;;;;;;;;;5023166;28;20118;-62
2021/12/25 12:31:43;;;;;;;3.55;1.63;;;;;;;;;;5031501;28;20048;-64
2021/12/25 12:34:33;;;;;;;2.13;1.48;;;;;;;;;;5028134;28;20554;-64
2021/12/25 12:37:14;;;;;;;4.07;2.00;;;;;;;;;;5018573;28;20096;-62
2021/12/25 12:39:41;;;;;;;3.63;1.70;;;;;;;;;;5027419;28;20043;-67
2021/12/25 12:42:11;;;;;;;2.65;1.42;;;;;;;;;;5028928;28;20036;-63
2021/12/25 12:44:37;;;;;;;2.47;1.33;;;;;;;;;;5026884;28;20033;-72
2021/12/25 12:47:05;;;;;;;3.38;1.73;;;;;;;;;;5025705;28;20112;-66
2021/12/25 12:49:49;;;;;;;4.70;2.42;;;;;;;;;;5030738;28;20040;-63
2021/12/25 12:52:36;;;;;;;4.93;2.13;;;;;;;;;;5017646;28;20081;-65
2021/12/25 12:55:24;;;;;;;5.80;2.03;;;;;;;;;;5025075;28;20021;-63
2021/12/25 12:58:25;;;;;;;5.88;2.33;;;;;;;;;;5016728;28;20053;-65
2021/12/25 13:01:00;;;;;;;8.13;3.03;;;;;;;;;;5027738;28;20396;-62
2021/12/25 13:03:27;;;;;;;5.38;2.70;;;;;;;;;;5029617;28;20022;-63
2021/12/25 13:06:03;;;;;;;7.78;2.80;;;;;;;;;;5023346;28;20122;-62
2021/12/25 13:08:32;;;;;;;5.65;2.80;;;;;;;;;;5025804;28;20539;-61
2021/12/25 13:11:07;;;;;;;10.70;3.60;;;;;;;;;;5030272;28;20042;-63
2021/12/25 13:13:38;;;;;;;9.70;3.53;;;;;;;;;;5029435;28;20033;-65
2021/12/25 13:16:10;;;;;;;8.82;3.25;;;;;;;;;;5029685;28;20128;-64
2021/12/25 13:18:42;;;;;;;6.97;3.08;;;;;;;;;;5026557;28;20060;-63
2021/12/25 13:21:11;;;;;;;10.18;4.45;;;;;;;;;;5026477;28;20096;-63
2021/12/25 13:23:47;;;;;;;15.77;5.95;;;;;;;;;;5029872;28;20060;-64
2021/12/25 13:26:14;;;;;;;19.17;8.48;;;;;;;;;;5031241;28;20116;-61
2021/12/25 13:28:42;;;;;;;14.90;6.50;;;;;;;;;;5021192;28;20022;-61
2021/12/25 13:31:09;;;;;;;12.10;5.30;;;;;;;;;;5024732;28;20098;-62
2021/12/25 13:33:44;;;;;;;12.48;5.57;;;;;;;;;;5035131;28;20511;-62
2021/12/25 13:36:12;;;;;;;14.82;6.80;;;;;;;;;;5034896;28;20040;-62
2021/12/25 13:38:54;;;;;;;13.52;5.95;;;;;;;;;;5034179;28;20056;-62
2021/12/25 13:41:30;;;;;;;20.30;9.77;;;;;;;;;;5034635;28;20025;-61
2021/12/25 13:44:15;;;;;;;10.85;5.07;;;;;;;;;;5019501;28;20021;-66
2021/12/25 13:46:48;;;;;;;7.40;3.55;;;;;;;;;;5013904;28;20080;-62
2021/12/25 13:49:32;;;;;;;10.77;4.60;;;;;;;;;;5014614;28;20022;-62
2021/12/25 13:52:01;;;;;;;8.07;3.05;;;;;;;;;;5014772;28;20025;-66
2021/12/25 13:54:26;;;;;;;9.48;3.67;;;;;;;;;;5014667;28;20441;-66
2021/12/25 13:56:54;;;;;;;8.43;4.55;;;;;;;;;;5015088;28;20037;-63
2021/12/25 13:59:21;;;;;;;23.10;8.48;;;;;;;;;;5010236;28;20030;-67
2021/12/25 14:02:04;;;;;;;16.52;6.68;;;;;;;;;;5034543;28;20032;-68
2021/12/25 14:04:34;;;;;;;10.32;3.55;;;;;;;;;;5034955;28;20036;-65
2021/12/25 14:07:00;;;;;;;8.13;3.38;;;;;;;;;;5032930;28;20025;-67
2021/12/25 14:09:26;;;;;;;7.35;2.83;;;;;;;;;;5029905;28;20031;-66
2021/12/25 14:11:54;;;;;;;5.88;3.00;;;;;;;;;;5034513;28;20480;-65
2021/12/25 14:14:22;;;;;;;7.43;3.60;;;;;;;;;;5022797;28;20048;-65
2021/12/25 14:16:47;;;;;;;5.18;2.90;;;;;;;;;;5021367;28;20030;-66
2021/12/25 14:19:13;;;;;;;10.52;5.18;;;;;;;;;;5027440;28;20037;-66
2021/12/25 14:21:50;;;;;;;21.55;11.07;;;;;;;;;;5025631;28;20028;-65
2021/12/25 14:24:16;;;;;;;22.30;11.30;;;;;;;;;;5033972;28;20033;-65
2021/12/25 14:26:42;;;;;;;14.98;7.63;;;;;;;;;;5029894;28;20389;-64
2021/12/25 14:29:27;;;;;;;15.48;5.75;;;;;;;;;;5026390;28;20384;-65
2021/12/25 14:31:53;;;;;;;11.15;3.83;;;;;;;;;;5027640;28;20029;-64
2021/12/25 14:34:19;;;;;;;11.75;3.88;;;;;;;;;;5023031;28;20108;-66
2021/12/25 14:36:46;;;;;;;11.90;4.47;;;;;;;;;;5023525;28;20030;-64
2021/12/25 14:39:19;;;;;;;11.27;4.68;;;;;;;;;;5025031;28;20091;-66
2021/12/25 14:41:46;;;;;;;10.68;4.05;;;;;;;;;;5027272;28;20503;-65
2021/12/25 14:44:17;;;;;;;15.07;4.55;;;;;;;;;;5020803;28;20026;-66
2021/12/25 14:46:43;;;;;;;14.32;5.50;;;;;;;;;;5024126;28;20484;-66
2021/12/25 14:49:08;;;;;;;27.17;7.85;;;;;;;;;;5025631;28;20050;-66
2021/12/25 14:51:39;;;;;;;41.17;12.38;;;;;;;;;;5029516;28;20108;-65
2021/12/25 14:54:05;;;;;;;;;;;;;;;;;;5033683;28;20029;-64
2021/12/25 14:56:31;;;;;;;18.35;6.70;;;;;;;;;;5027195;28;19917;-65
2021/12/25 14:59:04;;;;;;;54.67;13.43;;;;;;;;;;5031020;28;20056;-67
2021/12/25 15:01:35;;;;;;;42.72;13.38;;;;;;;;;;5021296;28;20068;-67
2021/12/25 15:04:04;;;;;;;20.48;6.38;;;;;;;;;;5026889;28;20053;-66
2021/12/25 15:06:31;;;;;;;19.95;6.40;;;;;;;;;;5033502;28;20040;-67
2021/12/25 15:09:08;;;;;;;10.52;4.43;;;;;;;;;;5033373;28;20030;-66
2021/12/25 15:11:43;;;;;;;5.82;2.80;;;;;;;;;;5033208;28;20131;-62
2021/12/25 15:14:15;;;;;;;7.15;2.42;;;;;;;;;;5033173;28;20182;-62
2021/12/25 15:16:42;;;;;;;5.45;2.58;;;;;;;;;;5017315;28;20029;-65
2021/12/25 15:19:08;;;;;;;10.70;3.50;;;;;;;;;;5013684;28;20108;-61
2021/12/25 15:21:47;;;;;;;6.47;3.13;;;;;;;;;;5015342;28;20053;-60
2021/12/25 15:24:19;;;;;;;8.38;3.53;;;;;;;;;;5028939;28;20112;-62
2021/12/25 15:26:51;;;;;;;7.15;3.58;;;;;;;;;;5033086;28;20119;-61
2021/12/25 15:29:16;;;;;;;8.07;3.33;;;;;;;;;;4981645;28;20061;-66
2021/12/25 15:31:43;;;;;;;7.20;3.50;;;;;;;;;;5029175;28;20048;-61
2021/12/25 15:34:12;;;;;;;11.52;3.50;;;;;;;;;;5033163;28;20374;-63
2021/12/25 15:36:42;;;;;;;13.45;4.07;;;;;;;;;;5026155;28;20259;-67
2021/12/25 15:39:18;;;;;;;11.35;4.32;;;;;;;;;;5027866;28;20034;-65
2021/12/25 15:41:46;;;;;;;9.77;3.80;;;;;;;;;;5029122;28;20464;-66
2021/12/25 15:44:13;;;;;;;11.73;3.97;;;;;;;;;;5015810;28;20079;-66
2021/12/25 15:46:38;;;;;;;9.43;4.60;;;;;;;;;;5032275;28;20037;-66
2021/12/25 15:49:06;;;;;;;15.48;6.85;;;;;;;;;;5032334;28;20024;-65
2021/12/25 15:51:32;;;;;;;14.30;5.50;;;;;;;;;;5032050;28;20045;-66
2021/12/25 15:53:57;;;;;;;18.98;5.32;;;;;;;;;;5032557;28;20021;-67
2021/12/25 15:56:26;;;;;;;11.57;4.60;;;;;;;;;;5023870;28;20041;-63
2021/12/25 15:58:53;;;;;;;16.33;4.45;;;;;;;;;;5031970;28;20056;-64
2021/12/25 16:01:20;;;;;;;9.80;4.25;;;;;;;;;;5032379;28;20030;-68
2021/12/25 16:03:46;;;;;;;10.80;3.53;;;;;;;;;;5032278;28;20026;-68
2021/12/25 16:06:12;;;;;;;10.27;3.67;;;;;;;;;;5031989;28;20029;-71
2021/12/25 16:08:38;;;;;;;12.98;4.75;;;;;;;;;;5030703;28;20053;-64
2021/12/25 16:11:05;;;;;;;11.70;4.78;;;;;;;;;;5028784;28;20037;-65
2021/12/25 16:13:31;;;;;;;11.75;5.38;;;;;;;;;;5029561;28;20022;-64
2021/12/25 16:15:57;;;;;;;15.27;4.32;;;;;;;;;;5029377;28;20045;-63